createdAt,value
2019-04-10T00:01:08.891Z,99555.16
2019-04-10T00:03:40.392Z,99560.20
2019-04-10T00:06:09.737Z,99559.95
2019-04-10T00:08:40.029Z,99559.10
2019-04-10T00:11:10.314Z,99554.64
2019-04-10T00:13:40.708Z,99550.36
2019-04-10T00:16:11.850Z,99553.48
2019-04-10T00:18:44.238Z,99552.89
2019-04-10T00:21:15.515Z,99551.17
2019-04-10T00:23:47.099Z,99554.64
2019-04-10T00:26:18.464Z,99552.50
2019-04-10T00:28:49.744Z,99552.59
2019-04-10T00:31:20.101Z,99547.39
2019-04-10T00:33:51.385Z,99544.31
2019-04-10T00:36:22.180Z,99545.73
2019-04-10T00:38:53.887Z,99544.13
2019-04-10T00:41:24.333Z,99545.79
2019-04-10T00:43:55.251Z,99552.78
2019-04-10T00:46:26.306Z,99550.95
2019-04-10T00:48:56.727Z,99546.61
2019-04-10T00:51:27.589Z,99557.89
2019-04-10T00:53:58.055Z,99562.27
2019-04-10T00:56:28.452Z,99560.48
2019-04-10T00:59:01.500Z,99561.41
2019-04-10T01:01:31.942Z,99555.86
2019-04-10T01:04:02.764Z,99554.08
2019-04-10T01:06:33.271Z,99553.63
2019-04-10T01:09:04.714Z,99546.83
2019-04-10T01:11:35.249Z,99555.80
2019-04-10T01:14:06.018Z,99550.78
2019-04-10T01:16:36.371Z,99539.52
2019-04-10T01:19:07.837Z,99543.42
2019-04-10T01:21:38.769Z,99543.00
2019-04-10T01:24:09.163Z,99545.22
2019-04-10T01:26:39.568Z,99546.91
2019-04-10T01:29:10.021Z,99537.09
2019-04-10T01:31:41.375Z,99537.07
2019-04-10T01:34:11.706Z,99529.84
2019-04-10T01:36:41.992Z,99533.77
2019-04-10T01:39:19.329Z,99534.24
2019-04-10T01:41:50.146Z,99537.33
2019-04-10T01:44:20.677Z,99533.05
2019-04-10T01:46:51.061Z,99530.98
2019-04-10T01:49:21.788Z,99525.25
2019-04-10T01:51:52.215Z,99530.95
2019-04-10T01:54:22.787Z,99527.12
2019-04-10T01:56:53.101Z,99526.62
2019-04-10T01:59:25.623Z,99522.46
2019-04-10T02:02:02.986Z,99523.37
2019-04-10T02:04:33.583Z,99517.38
2019-04-10T02:07:03.912Z,99510.45
2019-04-10T02:09:35.090Z,99508.79
2019-04-10T02:12:06.200Z,99510.95
2019-04-10T02:14:36.686Z,99513.15
2019-04-10T02:17:07.084Z,99506.70
2019-04-10T02:19:38.465Z,99520.53
2019-04-10T02:22:09.230Z,99519.70
2019-04-10T02:24:39.557Z,99527.46
2019-04-10T02:27:09.939Z,99530.05
2019-04-10T02:29:40.281Z,99521.95
2019-04-10T02:32:12.038Z,99520.36
2019-04-10T02:34:43.786Z,99519.04
2019-04-10T02:37:15.252Z,99518.98
2019-04-10T02:39:48.439Z,99519.59
2019-04-10T02:42:18.691Z,99514.03
2019-04-10T02:44:50.350Z,99519.16
2019-04-10T02:47:22.906Z,99514.03
2019-04-10T02:49:54.512Z,99522.38
2019-04-10T02:52:25.123Z,99519.33
2019-04-10T02:54:55.450Z,99525.01
2019-04-10T02:57:27.525Z,99527.63
2019-04-10T03:00:00.893Z,99513.02
2019-04-10T03:02:31.153Z,99521.69
2019-04-10T03:05:02.613Z,99520.40
2019-04-10T03:07:33.801Z,99517.38
2019-04-10T03:10:15.259Z,99516.13
2019-04-10T03:12:36.542Z,99517.89
2019-04-10T03:15:09.640Z,99519.62
2019-04-10T03:17:40.085Z,99526.08
2019-04-10T03:20:10.689Z,99520.56
2019-04-10T03:22:41.078Z,99525.78
2019-04-10T03:25:11.540Z,99515.89
2019-04-10T03:27:42.733Z,99527.55
2019-04-10T03:30:15.282Z,99520.65
2019-04-10T03:33:19.100Z,99518.98
2019-04-10T03:35:48.088Z,99524.62
2019-04-10T03:38:18.284Z,99518.64
2019-04-10T03:40:48.727Z,99523.80
2019-04-10T03:43:19.515Z,99519.52
2019-04-10T03:45:49.865Z,99523.08
2019-04-10T03:48:20.219Z,99525.61
2019-04-10T03:50:50.655Z,99524.33
2019-04-10T03:53:22.104Z,99529.06
2019-04-10T03:55:53.646Z,99527.01
2019-04-10T03:58:25.150Z,99533.55
2019-04-10T04:00:55.743Z,99530.13
2019-04-10T04:03:26.797Z,99525.42
2019-04-10T04:05:57.509Z,99525.02
2019-04-10T04:08:27.828Z,99526.33
2019-04-10T04:10:59.118Z,99529.36
2019-04-10T04:13:29.754Z,99527.56
2019-04-10T04:16:00.299Z,99522.89
2019-04-10T04:18:30.857Z,99523.68
2019-04-10T04:21:01.516Z,99528.98
2019-04-10T04:23:32.020Z,99525.10
2019-04-10T04:26:03.065Z,99527.69
2019-04-10T04:28:34.260Z,99534.20
2019-04-10T04:31:05.304Z,99536.33
2019-04-10T04:33:36.132Z,99534.67
2019-04-10T04:36:06.439Z,99538.13
2019-04-10T04:38:36.807Z,99532.12
2019-04-10T04:41:07.206Z,99538.59
2019-04-10T04:43:37.575Z,99542.01
2019-04-10T04:46:08.036Z,99544.27
2019-04-10T04:48:38.401Z,99544.70
2019-04-10T04:51:09.009Z,99548.64
2019-04-10T04:53:39.909Z,99549.53
2019-04-10T04:56:11.422Z,99550.41
2019-04-10T04:58:42.247Z,99555.59
2019-04-10T05:01:12.865Z,99559.55
2019-04-10T05:03:44.283Z,99563.84
2019-04-10T05:06:14.797Z,99560.03
2019-04-10T05:08:46.324Z,99568.63
2019-04-10T05:11:16.769Z,99571.66
2019-04-10T05:13:47.023Z,99572.97
2019-04-10T05:16:18.548Z,99581.59
2019-04-10T05:18:50.119Z,99579.01
2019-04-10T05:21:21.325Z,99577.25
2019-04-10T05:23:51.744Z,99580.36
2019-04-10T05:26:27.821Z,99580.77
2019-04-10T05:28:59.059Z,99585.14
2019-04-10T05:31:29.876Z,99581.67
2019-04-10T05:34:05.820Z,99590.78
2019-04-10T05:37:07.533Z,99587.80
2019-04-10T05:39:43.114Z,99591.72
2019-04-10T05:42:10.628Z,99589.56
2019-04-10T05:44:40.999Z,99594.66
2019-04-10T05:47:11.837Z,99590.37
2019-04-10T05:49:42.109Z,99595.58
2019-04-10T05:52:12.688Z,99601.22
2019-04-10T05:54:43.828Z,99602.05
2019-04-10T05:57:14.450Z,99605.11
2019-04-10T05:59:45.922Z,99610.67
2019-04-10T06:02:16.297Z,99607.69
2019-04-10T06:04:46.849Z,99607.25
2019-04-10T06:07:17.133Z,99608.55
2019-04-10T06:09:55.874Z,99580.33
2019-04-10T06:12:20.319Z,99614.15
2019-04-10T06:14:50.629Z,99619.78
2019-04-10T06:17:20.936Z,99618.49
2019-04-10T06:19:51.256Z,99625.39
2019-04-10T06:22:22.565Z,99628.42
2019-04-10T06:24:54.349Z,99631.48
2019-04-10T06:27:24.956Z,99626.37
2019-04-10T06:29:55.527Z,99628.53
2019-04-10T06:32:25.942Z,99631.94
2019-04-10T06:34:57.416Z,99624.62
2019-04-10T06:37:28.333Z,99629.44
2019-04-10T06:40:07.690Z,99626.38
2019-04-10T06:42:35.101Z,99633.23
2019-04-10T06:45:05.614Z,99632.77
2019-04-10T06:47:36.175Z,99631.38
2019-04-10T06:50:10.639Z,99634.86
2019-04-10T06:52:41.034Z,99640.01
2019-04-10T06:55:12.001Z,99637.72
2019-04-10T06:57:49.180Z,99635.12
2019-04-10T07:00:16.997Z,99637.29
2019-04-10T07:02:47.358Z,99648.52
2019-04-10T07:05:17.660Z,99644.63
2019-04-10T07:07:53.609Z,99649.33
2019-04-10T07:10:27.282Z,99654.11
2019-04-10T07:12:53.275Z,99659.31
2019-04-10T07:15:24.163Z,99662.73
2019-04-10T07:17:55.614Z,99665.41
2019-04-10T07:20:26.201Z,99671.78
2019-04-10T07:22:56.994Z,99660.14
2019-04-10T07:25:28.314Z,99660.59
2019-04-10T07:27:58.565Z,99660.99
2019-04-10T07:30:29.864Z,99666.84
2019-04-10T07:33:01.334Z,99670.73
2019-04-10T07:35:33.893Z,99674.96
2019-04-10T07:38:03.847Z,99678.46
2019-04-10T07:40:36.539Z,99673.99
2019-04-10T07:43:06.557Z,99674.25
2019-04-10T07:45:37.071Z,99672.87
2019-04-10T07:48:08.722Z,99674.55
2019-04-10T07:50:39.503Z,99675.81
2019-04-10T07:53:10.525Z,99672.54
2019-04-10T07:55:40.793Z,99674.87
2019-04-10T07:58:11.237Z,99679.41
2019-04-10T08:00:42.850Z,99679.81
2019-04-10T08:03:13.257Z,99687.35
2019-04-10T08:05:44.031Z,99680.63
2019-04-10T08:08:14.394Z,99678.98
2019-04-10T08:10:45.104Z,99673.45
2019-04-10T08:13:16.142Z,99677.00
2019-04-10T08:15:47.190Z,99673.85
2019-04-10T08:18:19.287Z,99678.22
2019-04-10T08:20:50.882Z,99683.34
2019-04-10T08:23:21.808Z,99679.47
2019-04-10T08:25:53.654Z,99681.81
2019-04-10T08:28:24.203Z,99677.95
2019-04-10T08:30:54.732Z,99687.75
2019-04-10T08:33:25.994Z,99678.18
2019-04-10T08:35:56.872Z,99679.73
2019-04-10T08:38:28.061Z,99678.40
2019-04-10T08:40:58.679Z,99681.87
2019-04-10T08:43:29.595Z,99685.56
2019-04-10T08:46:01.970Z,99680.22
2019-04-10T08:48:33.225Z,99683.94
2019-04-10T08:51:03.495Z,99693.39
2019-04-10T08:53:34.139Z,99682.84
2019-04-10T08:56:04.845Z,99687.70
2019-04-10T08:58:35.137Z,99686.14
2019-04-10T09:01:05.641Z,99693.74
2019-04-10T09:03:37.164Z,99691.02
2019-04-10T09:06:07.634Z,99685.98
2019-04-10T09:08:39.103Z,99687.73
2019-04-10T09:11:09.542Z,99690.44
2019-04-10T09:13:40.958Z,99687.80
2019-04-10T09:16:12.164Z,99686.36
2019-04-10T09:18:42.673Z,99687.00
2019-04-10T09:21:13.349Z,99685.97
2019-04-10T09:23:50.245Z,99683.98
2019-04-10T09:26:16.337Z,99684.70
2019-04-10T09:28:46.800Z,99681.20
2019-04-10T09:31:17.729Z,99687.36
2019-04-10T09:33:48.192Z,99680.81
2019-04-10T09:36:19.729Z,99676.34
2019-04-10T09:38:50.783Z,99671.86
2019-04-10T09:41:21.630Z,99672.50
2019-04-10T09:43:51.990Z,99681.13
2019-04-10T09:46:22.563Z,99675.72
2019-04-10T09:48:53.293Z,99671.64
2019-04-10T09:51:23.699Z,99690.21
2019-04-10T09:53:54.167Z,99686.03
2019-04-10T09:56:25.504Z,99685.92
2019-04-10T09:58:56.734Z,99684.95
2019-04-10T10:01:27.554Z,99675.23
2019-04-10T10:03:59.194Z,99669.73
2019-04-10T10:06:33.419Z,99664.16
2019-04-10T10:09:01.761Z,99658.94
2019-04-10T10:11:32.443Z,99661.73
2019-04-10T10:14:04.052Z,99658.63
2019-04-10T10:16:35.779Z,99663.41
2019-04-10T10:19:06.366Z,99670.35
2019-04-10T10:21:36.684Z,99658.14
2019-04-10T10:24:07.122Z,99660.14
2019-04-10T10:26:37.489Z,99652.92
2019-04-10T10:29:09.038Z,99652.45
2019-04-10T10:31:40.232Z,99654.53
2019-04-10T10:34:10.745Z,99668.54
2019-04-10T10:36:46.066Z,99651.59
2019-04-10T10:39:19.648Z,99657.36
2019-04-10T10:41:51.114Z,99649.99
2019-04-10T10:44:21.875Z,99650.78
2019-04-10T10:46:52.694Z,99649.20
2019-04-10T10:49:24.330Z,99655.11
2019-04-10T10:51:55.194Z,99664.45
2019-04-10T10:54:26.835Z,99657.72
2019-04-10T10:56:58.490Z,99665.59
2019-04-10T10:59:29.419Z,99652.31
2019-04-10T11:02:00.246Z,99662.27
2019-04-10T11:04:31.585Z,99654.48
2019-04-10T11:07:02.694Z,99654.08
2019-04-10T11:09:34.135Z,99659.47
2019-04-10T11:12:06.749Z,99662.89
2019-04-10T11:14:37.593Z,99664.69
2019-04-10T11:17:07.891Z,99666.33
2019-04-10T11:19:39.361Z,99660.80
2019-04-10T11:22:12.690Z,99668.19
2019-04-10T11:24:43.406Z,99664.89
2019-04-10T11:27:15.979Z,99662.75
2019-04-10T11:29:46.862Z,99659.66
2019-04-10T11:32:17.608Z,99660.74
2019-04-10T11:34:49.328Z,99658.59
2019-04-10T11:39:51.970Z,99647.80
2019-04-10T11:42:22.636Z,99646.98
2019-04-10T11:44:54.467Z,99651.34
2019-04-10T11:47:26.759Z,99649.05
2019-04-10T11:49:58.861Z,99655.58
2019-04-10T11:55:10.535Z,99661.97
2019-04-10T11:57:34.953Z,99654.05
2019-04-10T12:00:12.070Z,99663.84
2019-04-10T12:02:42.424Z,99656.64
2019-04-10T12:05:18.533Z,99652.59
2019-04-10T12:12:48.540Z,99656.55
2019-04-10T12:15:18.905Z,99660.22
2019-04-10T12:17:49.747Z,99661.87
2019-04-10T12:20:20.907Z,99667.59
2019-04-10T12:22:52.371Z,99676.92
2019-04-10T12:25:22.958Z,99670.58
2019-04-10T12:27:53.563Z,99662.53
2019-04-10T12:30:24.051Z,99662.23
2019-04-10T12:32:54.815Z,99667.09
2019-04-10T12:35:25.281Z,99660.41
2019-04-10T12:38:02.190Z,99660.19
2019-04-10T12:40:28.704Z,99665.20
2019-04-10T12:42:59.038Z,99683.23
2019-04-10T12:45:30.497Z,99669.25
2019-04-10T12:48:02.058Z,99664.92
2019-04-10T12:50:32.825Z,99665.33
2019-04-10T12:53:03.304Z,99655.56
2019-04-10T12:55:34.636Z,99671.11
2019-04-10T12:58:10.869Z,99669.38
2019-04-10T13:00:38.445Z,99663.34
2019-04-10T13:03:09.255Z,99672.09
2019-04-10T13:05:39.597Z,99677.01
2019-04-10T13:08:17.087Z,99671.09
2019-04-10T13:10:43.949Z,99659.48
2019-04-10T13:13:15.965Z,99659.29
2019-04-10T13:15:47.696Z,99659.46
2019-04-10T13:18:18.530Z,99662.48
2019-04-10T13:20:48.954Z,99658.51
2019-04-10T13:23:20.452Z,99667.38
2019-04-10T13:25:58.093Z,99659.73
2019-04-10T13:28:23.401Z,99654.12
2019-04-10T13:30:56.568Z,99671.44
2019-04-10T13:33:26.847Z,99659.25
2019-04-10T13:35:57.621Z,99667.92
2019-04-10T13:38:32.394Z,99666.92
2019-04-10T13:41:01.920Z,99655.00
2019-04-10T13:43:32.381Z,99658.05
2019-04-10T13:46:03.107Z,99661.72
2019-04-10T13:48:33.497Z,99654.59
2019-04-10T13:51:03.752Z,99661.72
2019-04-10T13:53:34.277Z,99666.00
2019-04-10T13:56:06.578Z,99659.41
2019-04-10T13:58:37.171Z,99660.72
2019-04-10T14:01:11.272Z,99662.59
2019-04-10T14:03:43.788Z,99656.00
2019-04-10T14:06:13.751Z,99660.39
2019-04-10T14:09:04.462Z,99658.67
2019-04-10T14:11:17.402Z,99662.87
2019-04-10T14:13:48.384Z,99661.55
2019-04-10T14:16:18.727Z,99669.70
2019-04-10T14:18:49.095Z,99663.63
2019-04-10T14:21:20.661Z,99666.63
2019-04-10T14:23:51.519Z,99674.47
2019-04-10T14:26:41.922Z,99687.13
2019-04-10T14:29:07.804Z,99670.81
2019-04-10T14:31:46.705Z,99677.55
2019-04-10T14:34:18.822Z,99669.75
2019-04-10T14:36:49.578Z,99673.45
2019-04-10T14:39:21.474Z,99681.86
2019-04-10T14:41:53.842Z,99674.19
2019-04-10T14:44:24.408Z,99686.20
2019-04-10T14:46:55.131Z,99689.95
2019-04-10T14:49:25.689Z,99683.04
2019-04-10T14:51:56.800Z,99680.89
2019-04-10T14:54:27.991Z,99686.04
2019-04-10T14:56:58.806Z,99686.77
2019-04-10T14:59:29.385Z,99695.14
2019-04-10T15:02:00.063Z,99712.69
2019-04-10T15:04:31.231Z,99710.27
2019-04-10T15:07:01.850Z,99704.16
2019-04-10T15:09:32.275Z,99699.62
2019-04-10T15:12:04.964Z,99701.45
2019-04-10T15:14:35.487Z,99701.49
2019-04-10T15:17:07.968Z,99700.85
2019-04-10T15:19:38.584Z,99704.63
2019-04-10T15:22:09.510Z,99705.88
2019-04-10T15:24:40.175Z,99692.83
2019-04-10T15:27:11.310Z,99701.31
2019-04-10T15:29:42.980Z,99712.22
2019-04-10T15:32:14.575Z,99711.52
2019-04-10T15:34:46.042Z,99716.30
2019-04-10T15:37:17.183Z,99712.36
2019-04-10T15:39:48.442Z,99717.90
2019-04-10T15:42:19.749Z,99718.07
2019-04-10T15:44:50.331Z,99719.31
2019-04-10T15:47:22.923Z,99723.80
2019-04-10T15:49:53.544Z,99718.82
2019-04-10T15:52:23.951Z,99722.73
2019-04-10T15:54:55.344Z,99720.36
2019-04-10T15:57:26.940Z,99724.80
2019-04-10T15:59:57.448Z,99729.30
2019-04-10T16:02:27.974Z,99720.01
2019-04-10T16:04:59.374Z,99724.92
2019-04-10T16:07:30.874Z,99726.78
2019-04-10T16:10:19.003Z,99726.39
2019-04-10T16:12:49.861Z,99746.26
2019-04-10T16:15:20.257Z,99737.30
2019-04-10T16:17:58.829Z,99742.69
2019-04-10T16:20:31.570Z,99744.41
2019-04-10T16:23:20.304Z,99753.38
2019-04-10T16:25:52.562Z,99750.33
2019-04-10T16:28:23.581Z,99752.13
2019-04-10T16:30:55.115Z,99754.84
2019-04-10T16:33:27.394Z,99766.46
2019-04-10T16:35:58.920Z,99768.00
2019-04-10T16:38:29.536Z,99765.02
2019-04-10T16:41:00.481Z,99751.44
2019-04-10T16:43:30.907Z,99770.91
2019-04-10T16:46:01.222Z,99772.79
2019-04-10T16:48:31.937Z,99778.58
2019-04-10T16:51:02.291Z,99790.61
2019-04-10T16:53:33.916Z,99789.11
2019-04-10T16:56:05.274Z,99813.52
2019-04-10T16:58:36.689Z,99785.70
2019-04-10T17:01:08.357Z,99816.01
2019-04-10T17:03:40.082Z,99790.32
2019-04-10T17:06:10.511Z,99793.45
2019-04-10T17:08:40.815Z,99801.66
2019-04-10T17:11:12.530Z,99801.66
2019-04-10T17:13:43.501Z,99791.50
2019-04-10T17:16:15.676Z,99805.19
2019-04-10T17:18:47.493Z,99811.91
2019-04-10T17:21:18.465Z,99803.22
2019-04-10T17:23:51.137Z,99806.87
2019-04-10T17:26:22.527Z,99812.31
2019-04-10T17:28:52.987Z,99819.34
2019-04-10T17:31:24.635Z,99806.72
2019-04-10T17:33:55.008Z,99820.22
2019-04-10T17:36:25.686Z,99824.48
2019-04-10T17:38:56.024Z,99824.16
2019-04-10T17:41:26.349Z,99831.38
2019-04-10T17:43:58.107Z,99830.56
2019-04-10T17:46:29.142Z,99854.80
2019-04-10T17:48:59.365Z,99849.77
2019-04-10T17:51:30.314Z,99838.21
2019-04-10T17:54:02.130Z,99839.18
2019-04-10T17:56:32.646Z,99853.18
2019-04-10T17:59:03.047Z,99850.78
2019-04-10T18:01:34.756Z,99857.88
2019-04-10T18:04:05.680Z,99860.91
2019-04-10T18:06:36.295Z,99866.64
2019-04-10T18:09:09.802Z,99884.55
2019-04-10T18:11:40.175Z,99877.88
2019-04-10T18:14:11.180Z,99872.36
2019-04-10T18:16:42.225Z,99885.98
2019-04-10T18:19:15.350Z,99890.48
2019-04-10T18:21:45.928Z,99891.05
2019-04-10T18:24:16.240Z,99895.03
2019-04-10T18:26:49.555Z,99899.11
2019-04-10T18:29:19.117Z,99900.48
2019-04-10T18:31:50.965Z,99912.27
2019-04-10T18:34:21.808Z,99917.19
2019-04-10T18:36:52.464Z,99914.61
2019-04-10T18:39:24.102Z,99925.50
2019-04-10T18:41:56.087Z,99924.67
2019-04-10T18:44:26.917Z,99929.53
2019-04-10T18:46:57.426Z,99930.48
2019-04-10T18:49:35.772Z,99943.66
2019-04-10T18:52:07.472Z,99942.57
2019-04-10T18:54:37.928Z,99943.13
2019-04-10T18:57:09.341Z,99955.34
2019-04-10T19:00:18.647Z,99949.23
2019-04-10T19:03:13.627Z,99962.69
2019-04-10T19:05:47.757Z,99963.23
2019-04-10T19:08:18.087Z,99970.78
2019-04-10T19:10:48.532Z,99973.02
2019-04-10T19:13:18.927Z,99977.31
2019-04-10T19:15:49.320Z,99983.52
2019-04-10T19:18:19.731Z,99981.02
2019-04-10T19:20:51.436Z,99990.20
2019-04-10T19:23:22.728Z,99993.19
2019-04-10T19:25:54.708Z,99998.95
2019-04-10T19:28:32.285Z,99997.62
2019-04-10T19:31:11.885Z,100005.01
2019-04-10T19:33:37.687Z,100001.15
2019-04-10T19:36:08.022Z,100018.34
2019-04-10T19:38:38.393Z,100011.42
2019-04-10T19:41:23.342Z,100011.48
2019-04-10T19:43:43.274Z,100013.27
2019-04-10T19:46:13.965Z,100011.21
2019-04-10T19:48:47.252Z,100017.27
2019-04-10T19:51:16.949Z,100019.91
2019-04-10T19:54:17.806Z,100025.56
2019-04-10T19:56:48.881Z,100032.12
2019-04-10T19:59:19.333Z,100032.95
2019-04-10T20:01:50.667Z,100032.11
2019-04-10T20:04:21.213Z,100039.48
2019-04-10T20:06:52.349Z,100041.63
2019-04-10T20:09:24.191Z,100041.23
2019-04-10T20:11:57.191Z,100043.39
2019-04-10T20:14:28.367Z,100044.67
2019-04-10T20:16:59.732Z,100050.74
2019-04-10T20:19:30.737Z,100045.13
2019-04-10T20:22:01.117Z,100052.48
2019-04-10T20:24:32.610Z,100016.46
2019-04-10T20:27:03.535Z,100053.86
2019-04-10T20:29:35.046Z,100062.92
2019-04-10T20:32:05.904Z,100053.53
2019-04-10T20:34:37.777Z,100063.43
2019-04-10T20:37:09.871Z,100067.76
2019-04-10T20:39:41.219Z,100075.97
2019-04-10T20:42:11.892Z,100078.15
2019-04-10T20:44:43.038Z,100076.01
2019-04-10T20:47:13.383Z,100084.61
2019-04-10T20:49:44.698Z,100088.91
2019-04-10T20:52:15.108Z,100079.45
2019-04-10T20:54:45.434Z,100085.47
2019-04-10T20:57:15.858Z,100085.50
2019-04-10T20:59:46.133Z,100088.09
2019-04-10T21:02:16.506Z,100096.74
2019-04-10T21:04:54.538Z,100094.59
2019-04-10T21:07:19.860Z,100102.80
2019-04-10T21:09:50.324Z,100097.19
2019-04-10T21:12:21.426Z,100110.97
2019-04-10T21:14:52.559Z,100104.95
2019-04-10T21:17:23.022Z,100102.80
2019-04-10T21:19:53.815Z,100108.83
2019-04-10T21:22:24.604Z,100109.30
2019-04-10T21:24:56.194Z,100104.98
2019-04-10T21:27:26.634Z,100111.00
2019-04-10T21:30:18.637Z,100116.20
2019-04-10T21:32:58.313Z,100115.78
2019-04-10T21:35:32.909Z,100114.49
2019-04-10T21:38:04.694Z,100120.55
2019-04-10T21:40:35.354Z,100119.68
2019-04-10T21:43:06.112Z,100124.87
2019-04-10T21:45:37.034Z,100130.89
2019-04-10T21:48:08.500Z,100125.31
2019-04-10T21:50:39.815Z,100135.22
2019-04-10T21:53:10.231Z,100127.91
2019-04-10T21:55:41.691Z,100126.16
2019-04-10T21:58:13.103Z,100131.73
2019-04-10T22:01:13.431Z,100128.30
2019-04-10T22:03:44.196Z,100132.17
2019-04-10T22:06:45.555Z,100133.47
2019-04-10T22:09:34.977Z,100133.06
2019-04-10T22:12:24.036Z,100134.75
2019-04-10T22:14:45.981Z,100139.92
2019-04-10T22:17:17.128Z,100142.09
2019-04-10T22:19:47.505Z,100149.81
2019-04-10T22:22:18.246Z,100146.81
2019-04-10T22:24:48.985Z,100152.86
2019-04-10T22:27:19.563Z,100147.67
2019-04-10T22:32:25.464Z,100149.84
2019-04-10T22:34:56.927Z,100158.44
2019-04-10T22:37:27.902Z,100158.02
2019-04-10T22:39:58.736Z,100162.31
2019-04-10T22:42:40.164Z,100165.33
2019-04-10T22:45:02.600Z,100170.02
2019-04-10T22:47:33.958Z,100164.00
2019-04-10T22:50:04.971Z,100166.14
2019-04-10T22:52:35.353Z,100164.41
2019-04-10T22:55:07.117Z,100170.88
2019-04-10T22:57:39.734Z,100168.28
2019-04-10T23:00:12.462Z,100169.58
2019-04-10T23:02:42.837Z,100170.02
2019-04-10T23:05:16.240Z,100170.01
2019-04-10T23:07:47.213Z,100175.59
2019-04-10T23:10:19.136Z,100174.30
2019-04-10T23:12:58.114Z,100170.81
2019-04-10T23:15:21.707Z,100173.84
2019-04-10T23:17:52.852Z,100172.55
2019-04-10T23:20:23.781Z,100179.42
2019-04-10T23:22:54.795Z,100176.45
2019-04-10T23:25:25.242Z,100182.42
2019-04-10T23:27:56.413Z,100183.67
2019-04-10T23:30:26.998Z,100186.72
2019-04-10T23:32:57.663Z,100187.97
2019-04-10T23:35:27.930Z,100188.80
2019-04-10T23:37:59.505Z,100189.73
2019-04-10T23:40:29.862Z,100183.66
2019-04-10T23:43:07.711Z,100181.91
2019-04-10T23:45:33.508Z,100185.34
2019-04-10T23:48:04.553Z,100185.67
2019-04-10T23:50:36.434Z,100188.70
2019-04-10T23:53:06.958Z,100190.42
2019-04-10T23:55:37.853Z,100183.45
2019-04-10T23:58:09.399Z,100184.38
